createdAt,value
2022-10-12T00:01:13.053Z,57.27
2022-10-12T00:03:41.006Z,57.11
2022-10-12T00:06:15.082Z,57.12
2022-10-12T00:08:45.221Z,57.26
2022-10-12T00:11:20.905Z,57.33
2022-10-12T00:13:49.592Z,57.39
2022-10-12T00:16:19.701Z,57.48
2022-10-12T00:18:58.772Z,57.63
2022-10-12T00:21:29.596Z,57.81
2022-10-12T00:24:01.587Z,57.63
2022-10-12T00:26:29.906Z,57.80
2022-10-12T00:29:01.645Z,57.66
2022-10-12T00:31:31.051Z,57.40
2022-10-12T00:34:02.201Z,57.53
2022-10-12T00:36:35.130Z,57.57
2022-10-12T00:39:06.425Z,57.29
2022-10-12T00:41:39.030Z,57.55
2022-10-12T00:44:54.795Z,57.55
2022-10-12T00:47:37.879Z,57.55
2022-10-12T00:50:29.564Z,57.58
2022-10-12T00:53:14.325Z,57.52
2022-10-12T00:55:59.612Z,57.56
2022-10-12T00:58:31.556Z,57.76
2022-10-12T01:01:05.428Z,57.81
2022-10-12T01:03:34.960Z,58.04
2022-10-12T01:06:03.882Z,58.01
2022-10-12T01:08:31.718Z,58.16
2022-10-12T01:10:59.508Z,58.17
2022-10-12T01:13:27.538Z,57.95
2022-10-12T01:16:29.785Z,57.85
2022-10-12T01:19:24.526Z,57.90
2022-10-12T01:22:07.581Z,57.95
2022-10-12T01:25:23.058Z,57.99
2022-10-12T01:28:00.984Z,58.21
2022-10-12T01:30:36.744Z,58.28
2022-10-12T01:33:25.939Z,58.37
2022-10-12T01:36:10.149Z,58.38
2022-10-12T01:38:59.768Z,58.30
2022-10-12T01:41:54.773Z,58.57
2022-10-12T01:44:26.133Z,58.40
2022-10-12T01:46:55.758Z,58.57
2022-10-12T01:49:27.668Z,58.56
2022-10-12T01:52:24.447Z,58.20
2022-10-12T01:55:11.429Z,58.42
2022-10-12T01:58:09.650Z,58.37
2022-10-12T02:01:08.976Z,58.39
2022-10-12T02:04:03.762Z,58.41
2022-10-12T02:06:46.278Z,58.44
2022-10-12T02:09:30.776Z,58.55
2022-10-12T02:12:22.984Z,58.51
2022-10-12T02:14:57.224Z,58.69
2022-10-12T02:21:34.785Z,58.79
2022-10-12T02:24:08.343Z,58.78
2022-10-12T02:26:41.239Z,58.81
2022-10-12T02:29:16.102Z,58.79
2022-10-12T02:32:27.382Z,58.66
2022-10-12T02:35:33.196Z,58.79
2022-10-12T02:38:12.095Z,58.76
2022-10-12T02:41:18.560Z,58.91
2022-10-12T02:43:57.910Z,58.41
2022-10-12T02:46:27.217Z,58.92
2022-10-12T02:48:59.066Z,59.00
2022-10-12T02:51:31.329Z,59.04
2022-10-12T02:53:59.793Z,59.06
2022-10-12T02:56:27.729Z,59.11
2022-10-12T02:58:55.591Z,59.02
2022-10-12T03:01:23.497Z,58.84
2022-10-12T03:03:51.481Z,58.79
2022-10-12T03:06:20.272Z,58.70
2022-10-12T03:08:48.167Z,58.90
2022-10-12T03:11:16.081Z,58.92
2022-10-12T03:13:43.926Z,59.03
2022-10-12T03:16:12.249Z,58.92
2022-10-12T03:18:40.399Z,58.95
2022-10-12T03:21:08.495Z,58.90
2022-10-12T03:23:36.646Z,59.20
2022-10-12T03:26:06.204Z,59.32
2022-10-12T03:28:34.890Z,59.15
2022-10-12T03:31:03.183Z,59.17
2022-10-12T03:33:30.960Z,59.00
2022-10-12T03:35:59.837Z,58.83
2022-10-12T03:38:27.631Z,59.12
2022-10-12T03:40:55.658Z,59.12
2022-10-12T03:43:23.644Z,59.14
2022-10-12T03:45:52.757Z,59.29
2022-10-12T03:48:20.953Z,59.21
2022-10-12T03:50:53.050Z,59.12
2022-10-12T03:53:21.386Z,59.07
2022-10-12T03:55:49.238Z,59.20
2022-10-12T03:58:17.229Z,59.22
2022-10-12T04:00:45.194Z,59.43
2022-10-12T04:03:13.067Z,59.46
2022-10-12T04:05:41.099Z,59.52
2022-10-12T04:08:09.383Z,59.49
2022-10-12T04:10:37.226Z,59.53
2022-10-12T04:13:05.052Z,59.52
2022-10-12T04:15:32.843Z,59.31
2022-10-12T04:18:00.615Z,58.99
2022-10-12T04:20:28.499Z,59.18
2022-10-12T04:22:56.267Z,59.20
2022-10-12T04:25:29.172Z,59.25
2022-10-12T04:27:58.176Z,59.09
2022-10-12T04:30:26.084Z,59.29
2022-10-12T04:32:53.909Z,59.22
2022-10-12T04:35:21.712Z,59.42
2022-10-12T04:37:49.541Z,59.23
2022-10-12T04:40:18.129Z,59.39
2022-10-12T04:42:45.903Z,59.14
2022-10-12T04:45:14.288Z,59.21
2022-10-12T04:47:42.090Z,59.19
2022-10-12T04:50:10.291Z,58.99
2022-10-12T04:52:38.090Z,59.07
2022-10-12T04:55:06.804Z,59.09
2022-10-12T04:57:34.593Z,59.16
2022-10-12T05:00:02.562Z,58.90
2022-10-12T05:02:30.353Z,58.88
2022-10-12T05:04:58.282Z,58.90
2022-10-12T05:07:26.061Z,58.93
2022-10-12T05:09:53.901Z,58.98
2022-10-12T05:12:21.692Z,59.03
2022-10-12T05:14:50.664Z,59.19
2022-10-12T05:17:18.481Z,59.10
2022-10-12T05:19:46.331Z,59.15
2022-10-12T05:22:14.121Z,59.05
2022-10-12T05:24:41.979Z,59.03
2022-10-12T05:27:09.778Z,59.05
2022-10-12T05:29:37.635Z,59.03
2022-10-12T05:32:05.738Z,59.16
2022-10-12T05:34:33.752Z,59.15
2022-10-12T05:37:01.672Z,59.24
2022-10-12T05:39:29.530Z,59.08
2022-10-12T05:41:57.385Z,59.16
2022-10-12T05:44:25.205Z,59.25
2022-10-12T05:46:53.112Z,59.07
2022-10-12T05:49:20.947Z,59.05
2022-10-12T05:51:48.799Z,59.18
2022-10-12T05:54:16.634Z,59.23
2022-10-12T05:56:44.407Z,58.99
2022-10-12T05:59:12.485Z,59.05
2022-10-12T06:01:40.489Z,59.30
2022-10-12T06:04:08.379Z,59.26
2022-10-12T06:06:36.158Z,58.92
2022-10-12T06:09:04.116Z,59.00
2022-10-12T06:11:35.546Z,59.04
2022-10-12T06:14:04.771Z,58.98
2022-10-12T06:16:32.613Z,59.01
2022-10-12T06:19:00.430Z,59.03
2022-10-12T06:21:33.671Z,59.16
2022-10-12T06:24:02.314Z,59.00
2022-10-12T06:26:30.389Z,59.08
2022-10-12T06:29:00.642Z,59.07
2022-10-12T06:31:29.316Z,58.78
2022-10-12T06:33:57.191Z,59.14
2022-10-12T06:36:25.050Z,58.66
2022-10-12T06:38:53.277Z,58.94
2022-10-12T06:41:21.057Z,58.95
2022-10-12T06:43:48.885Z,59.04
2022-10-12T06:46:16.753Z,58.82
2022-10-12T06:48:44.904Z,59.13
2022-10-12T06:51:13.114Z,59.00
2022-10-12T06:53:40.919Z,58.87
2022-10-12T06:56:10.669Z,58.71
2022-10-12T06:58:38.892Z,58.61
2022-10-12T07:01:10.788Z,58.76
2022-10-12T07:03:38.836Z,58.64
2022-10-12T07:06:14.426Z,58.55
2022-10-12T07:08:42.909Z,58.80
2022-10-12T07:11:13.825Z,58.72
2022-10-12T07:13:41.698Z,58.85
2022-10-12T07:16:09.539Z,58.64
2022-10-12T07:18:37.530Z,58.43
2022-10-12T07:21:05.504Z,58.41
2022-10-12T07:23:34.679Z,58.36
2022-10-12T07:26:02.438Z,58.40
2022-10-12T07:28:30.303Z,58.45
2022-10-12T07:31:07.914Z,58.29
2022-10-12T07:33:38.645Z,58.70
2022-10-12T07:36:17.309Z,58.33
2022-10-12T07:38:49.137Z,58.49
2022-10-12T07:41:17.755Z,58.66
2022-10-12T07:43:45.628Z,58.62
2022-10-12T07:46:13.603Z,58.65
2022-10-12T07:48:47.267Z,58.63
2022-10-12T07:51:18.396Z,58.75
2022-10-12T07:53:46.321Z,58.53
2022-10-12T07:56:17.352Z,58.63
2022-10-12T07:58:54.151Z,58.50
2022-10-12T08:01:25.524Z,58.84
2022-10-12T08:03:58.822Z,58.96
2022-10-12T08:06:34.124Z,58.79
2022-10-12T08:09:03.456Z,58.67
2022-10-12T08:11:31.391Z,58.84
2022-10-12T08:13:59.261Z,58.70
2022-10-12T08:16:27.116Z,58.74
2022-10-12T08:18:54.971Z,59.03
2022-10-12T08:21:22.770Z,58.80
2022-10-12T08:23:50.650Z,58.64
2022-10-12T08:26:18.495Z,58.88
2022-10-12T08:28:46.504Z,58.81
2022-10-12T08:31:16.871Z,58.60
2022-10-12T08:33:45.172Z,58.76
2022-10-12T08:36:13.659Z,58.67
2022-10-12T08:38:43.628Z,58.71
2022-10-12T08:41:28.600Z,58.70
2022-10-12T08:44:42.837Z,58.83
2022-10-12T08:47:31.980Z,58.88
2022-10-12T08:50:02.566Z,58.64
2022-10-12T08:52:57.293Z,58.65
2022-10-12T08:55:44.358Z,58.65
2022-10-12T08:58:22.586Z,58.32
2022-10-12T09:01:12.866Z,58.32
2022-10-12T09:04:33.406Z,58.17
2022-10-12T09:07:19.893Z,57.84
2022-10-12T09:10:10.813Z,57.96
2022-10-12T09:13:00.405Z,57.95
2022-10-12T09:16:03.781Z,57.58
2022-10-12T09:18:41.554Z,57.57
2022-10-12T09:21:17.644Z,57.43
2022-10-12T09:23:46.772Z,57.21
2022-10-12T09:26:26.139Z,57.44
2022-10-12T09:28:58.477Z,57.26
2022-10-12T09:31:37.905Z,57.17
2022-10-12T09:34:08.498Z,57.17
2022-10-12T09:36:40.182Z,57.24
2022-10-12T09:39:18.807Z,56.92
2022-10-12T09:41:49.188Z,56.65
2022-10-12T09:44:35.325Z,56.79
2022-10-12T09:47:09.105Z,56.42
2022-10-12T09:49:44.688Z,56.49
2022-10-12T09:52:15.570Z,56.35
2022-10-12T09:54:57.481Z,56.53
2022-10-12T09:57:36.197Z,56.48
2022-10-12T10:00:27.602Z,56.22
2022-10-12T10:02:56.320Z,55.91
2022-10-12T10:05:31.909Z,55.73
2022-10-12T10:08:29.339Z,56.16
2022-10-12T10:11:01.685Z,55.72
2022-10-12T10:13:32.476Z,55.75
2022-10-12T10:16:20.155Z,55.84
2022-10-12T10:18:58.956Z,55.24
2022-10-12T10:21:37.785Z,55.36
2022-10-12T10:24:20.952Z,54.79
2022-10-12T10:26:54.509Z,54.31
2022-10-12T10:29:22.118Z,54.40
2022-10-12T10:32:26.311Z,54.37
2022-10-12T10:35:22.506Z,54.47
2022-10-12T10:37:55.745Z,53.79
2022-10-12T10:40:29.137Z,53.42
2022-10-12T10:43:03.838Z,53.48
2022-10-12T10:45:48.415Z,53.53
2022-10-12T10:48:23.188Z,53.35
2022-10-12T10:51:03.761Z,53.38
2022-10-12T10:53:47.197Z,52.90
2022-10-12T10:56:27.548Z,52.59
2022-10-12T10:59:00.204Z,52.52
2022-10-12T11:01:56.796Z,52.74
2022-10-12T11:04:41.187Z,52.54
2022-10-12T11:07:30.104Z,52.48
2022-10-12T11:10:02.709Z,51.88
2022-10-12T11:12:36.106Z,51.61
2022-10-12T11:16:09.631Z,52.20
2022-10-12T11:18:47.324Z,51.60
2022-10-12T11:21:23.776Z,51.85
2022-10-12T11:24:05.838Z,52.08
2022-10-12T11:26:43.529Z,51.26
2022-10-12T11:29:14.711Z,51.48
2022-10-12T11:32:20.582Z,51.55
2022-10-12T11:34:59.831Z,51.21
2022-10-12T11:37:38.820Z,51.14
2022-10-12T11:40:23.544Z,50.81
2022-10-12T11:42:56.085Z,50.81
2022-10-12T11:45:34.444Z,50.78
2022-10-12T11:48:12.153Z,50.63
2022-10-12T11:50:45.056Z,50.63
2022-10-12T11:53:48.276Z,51.40
2022-10-12T11:56:43.292Z,50.96
2022-10-12T11:59:27.314Z,50.68
2022-10-12T12:02:13.683Z,51.04
2022-10-12T12:04:47.697Z,50.45
2022-10-12T12:07:43.744Z,50.59
2022-10-12T12:10:31.863Z,50.85
2022-10-12T12:13:15.014Z,50.88
2022-10-12T12:15:49.817Z,50.54
2022-10-12T12:18:24.426Z,50.40
2022-10-12T12:21:08.737Z,50.31
2022-10-12T12:23:54.139Z,50.57
2022-10-12T12:26:28.632Z,49.80
2022-10-12T12:29:17.585Z,49.69
2022-10-12T12:31:59.099Z,49.78
2022-10-12T12:34:28.109Z,49.49
2022-10-12T12:36:57.374Z,49.58
2022-10-12T12:39:32.832Z,50.07
2022-10-12T12:42:08.489Z,49.82
2022-10-12T12:44:42.648Z,49.69
2022-10-12T12:50:22.487Z,49.66
2022-10-12T12:52:50.844Z,49.37
2022-10-12T12:55:30.490Z,49.64
2022-10-12T12:58:26.191Z,49.93
2022-10-12T13:01:50.287Z,49.74
2022-10-12T13:05:15.684Z,49.58
2022-10-12T13:08:12.599Z,49.59
2022-10-12T13:11:30.186Z,49.71
2022-10-12T13:14:19.483Z,49.48
2022-10-12T13:17:35.732Z,49.60
2022-10-12T13:20:34.443Z,49.78
2022-10-12T13:23:11.773Z,49.29
2022-10-12T13:25:56.204Z,49.62
2022-10-12T13:28:31.737Z,49.84
2022-10-12T13:31:09.292Z,49.72
2022-10-12T13:34:29.845Z,49.74
2022-10-12T13:37:02.112Z,48.99
2022-10-12T13:39:33.123Z,48.76
2022-10-12T13:42:04.783Z,48.81
2022-10-12T13:44:36.468Z,48.94
2022-10-12T13:47:32.393Z,49.42
2022-10-12T13:50:00.872Z,48.68
2022-10-12T13:52:34.107Z,48.54
2022-10-12T13:55:14.774Z,48.62
2022-10-12T13:57:48.511Z,48.73
2022-10-12T14:00:16.452Z,48.74
2022-10-12T14:02:59.785Z,49.21
2022-10-12T14:05:31.390Z,48.94
2022-10-12T14:08:11.093Z,48.80
2022-10-12T14:10:41.051Z,47.98
2022-10-12T14:13:15.492Z,48.18
2022-10-12T14:15:43.469Z,47.75
2022-10-12T14:18:35.114Z,48.03
2022-10-12T14:21:14.608Z,47.75
2022-10-12T14:23:48.911Z,47.29
2022-10-12T14:26:44.936Z,47.59
2022-10-12T14:29:45.561Z,47.53
2022-10-12T14:32:13.204Z,47.13
2022-10-12T14:34:48.895Z,47.19
2022-10-12T14:37:16.585Z,47.48
2022-10-12T14:39:48.380Z,47.39
2022-10-12T14:42:27.788Z,47.56
2022-10-12T14:44:56.103Z,47.83
2022-10-12T14:47:29.142Z,47.72
2022-10-12T14:52:55.065Z,48.17
2022-10-12T14:55:25.318Z,47.81
2022-10-12T14:57:53.585Z,48.03
2022-10-12T15:00:29.326Z,48.33
2022-10-12T15:02:57.876Z,48.46
2022-10-12T15:05:29.142Z,48.41
2022-10-12T15:07:56.960Z,48.29
2022-10-12T15:10:27.556Z,48.28
2022-10-12T15:12:55.402Z,48.58
2022-10-12T15:15:46.540Z,48.57
2022-10-12T15:18:14.418Z,48.40
2022-10-12T15:20:46.761Z,48.54
2022-10-12T15:23:17.330Z,48.69
2022-10-12T15:25:56.832Z,48.65
2022-10-12T15:28:24.747Z,48.56
2022-10-12T15:31:16.045Z,48.76
2022-10-12T15:33:41.784Z,49.02
2022-10-12T15:36:10.361Z,48.85
2022-10-12T15:38:38.525Z,49.06
2022-10-12T15:41:10.250Z,49.05
2022-10-12T15:43:41.112Z,49.32
2022-10-12T15:46:12.299Z,49.52
2022-10-12T15:48:40.439Z,49.40
2022-10-12T15:51:19.155Z,49.59
2022-10-12T15:53:47.055Z,49.91
2022-10-12T15:56:16.588Z,49.79
2022-10-12T15:58:44.906Z,50.05
2022-10-12T16:01:19.526Z,50.06
2022-10-12T16:03:49.425Z,49.74
2022-10-12T16:06:17.513Z,49.91
2022-10-12T16:08:45.331Z,50.17
2022-10-12T16:11:16.100Z,50.27
2022-10-12T16:13:54.076Z,49.94
2022-10-12T16:16:24.467Z,50.14
2022-10-12T16:18:54.037Z,50.34
2022-10-12T16:21:22.223Z,50.49
2022-10-12T16:23:50.024Z,50.26
2022-10-12T16:26:17.980Z,50.36
2022-10-12T16:28:45.897Z,50.40
2022-10-12T16:31:17.691Z,50.77
2022-10-12T16:33:46.116Z,50.25
2022-10-12T16:36:16.870Z,50.65
2022-10-12T16:38:45.109Z,50.64
2022-10-12T16:41:17.102Z,50.71
2022-10-12T16:43:45.680Z,50.56
2022-10-12T16:46:13.524Z,50.81
2022-10-12T16:48:41.581Z,50.87
2022-10-12T16:51:11.417Z,51.01
2022-10-12T16:53:42.351Z,51.04
2022-10-12T16:56:10.735Z,51.14
2022-10-12T16:58:38.607Z,51.19
2022-10-12T17:01:11.593Z,51.22
2022-10-12T17:03:40.422Z,51.16
2022-10-12T17:06:08.865Z,51.27
2022-10-12T17:08:39.440Z,51.59
2022-10-12T17:11:10.817Z,51.59
2022-10-12T17:13:39.959Z,51.71
2022-10-12T17:16:28.451Z,52.00
2022-10-12T17:18:59.652Z,51.96
2022-10-12T17:21:28.299Z,52.04
2022-10-12T17:23:58.486Z,52.17
2022-10-12T17:26:26.776Z,52.23
2022-10-12T17:28:54.795Z,52.15
2022-10-12T17:31:22.717Z,52.27
2022-10-12T17:33:50.564Z,52.18
2022-10-12T17:36:18.455Z,52.28
2022-10-12T17:38:49.003Z,52.43
2022-10-12T17:41:16.789Z,52.41
2022-10-12T17:43:44.631Z,52.49
2022-10-12T17:46:12.673Z,52.50
2022-10-12T17:48:40.520Z,52.70
2022-10-12T17:51:12.452Z,52.70
2022-10-12T17:53:40.687Z,52.86
2022-10-12T17:56:13.221Z,53.08
2022-10-12T17:58:41.253Z,53.24
2022-10-12T18:01:14.245Z,53.35
2022-10-12T18:03:44.718Z,53.46
2022-10-12T18:06:16.658Z,53.72
2022-10-12T18:08:44.855Z,53.84
2022-10-12T18:11:13.403Z,53.92
2022-10-12T18:13:44.750Z,54.12
2022-10-12T18:16:12.956Z,54.02
2022-10-12T18:18:41.874Z,54.07
2022-10-12T18:21:14.034Z,54.26
2022-10-12T18:23:41.892Z,54.06
2022-10-12T18:26:13.270Z,54.13
2022-10-12T18:28:42.118Z,54.23
2022-10-12T18:31:18.693Z,54.22
2022-10-12T18:33:46.835Z,54.25
2022-10-12T18:36:17.053Z,54.29
2022-10-12T18:38:45.283Z,54.61
2022-10-12T18:41:17.091Z,54.62
2022-10-12T18:43:45.376Z,54.71
2022-10-12T18:46:18.333Z,54.68
2022-10-12T18:48:48.230Z,54.64
2022-10-12T18:51:39.246Z,54.48
2022-10-12T18:54:08.710Z,54.66
2022-10-12T18:56:37.136Z,54.65
2022-10-12T18:59:06.533Z,54.65
2022-10-12T19:01:34.636Z,54.63
2022-10-12T19:04:04.282Z,54.76
2022-10-12T19:06:36.193Z,54.95
2022-10-12T19:09:05.820Z,55.18
2022-10-12T19:11:34.681Z,55.24
2022-10-12T19:14:08.761Z,55.38
2022-10-12T19:16:36.743Z,55.42
2022-10-12T19:19:09.134Z,55.33
2022-10-12T19:21:38.008Z,55.46
2022-10-12T19:24:08.775Z,55.32
2022-10-12T19:26:36.811Z,55.28
2022-10-12T19:29:05.638Z,55.44
2022-10-12T19:31:39.854Z,55.25
2022-10-12T19:34:11.168Z,55.67
2022-10-12T19:36:40.349Z,55.85
2022-10-12T19:39:13.945Z,56.10
2022-10-12T19:41:42.125Z,56.11
2022-10-12T19:44:12.779Z,56.30
2022-10-12T19:46:42.602Z,56.17
2022-10-12T19:49:14.093Z,55.95
2022-10-12T19:51:43.049Z,56.00
2022-10-12T19:54:13.606Z,55.89
2022-10-12T19:56:41.680Z,56.11
2022-10-12T19:59:09.878Z,56.38
2022-10-12T20:01:39.584Z,56.36
2022-10-12T20:04:11.910Z,56.64
2022-10-12T20:06:40.497Z,56.73
2022-10-12T20:09:10.340Z,56.75
2022-10-12T20:11:38.589Z,56.38
2022-10-12T20:14:07.309Z,56.05
2022-10-12T20:16:36.521Z,56.30
2022-10-12T20:19:05.512Z,56.61
2022-10-12T20:21:33.644Z,56.52
2022-10-12T20:24:01.483Z,56.87
2022-10-12T20:26:29.361Z,56.93
2022-10-12T20:28:57.178Z,56.90
2022-10-12T20:31:27.357Z,56.96
2022-10-12T20:33:56.339Z,57.01
2022-10-12T20:36:31.478Z,57.14
2022-10-12T20:38:59.928Z,57.15
2022-10-12T20:41:27.998Z,56.93
2022-10-12T20:43:58.396Z,57.15
2022-10-12T20:46:27.496Z,57.13
2022-10-12T20:49:01.802Z,57.25
2022-10-12T20:51:35.876Z,56.97
2022-10-12T20:54:05.897Z,57.11
2022-10-12T20:56:34.277Z,57.28
2022-10-12T20:59:02.344Z,57.31
2022-10-12T21:01:30.317Z,57.58
2022-10-12T21:03:58.257Z,57.61
2022-10-12T21:06:26.173Z,57.66
2022-10-12T21:08:57.119Z,57.67
2022-10-12T21:11:25.541Z,57.69
2022-10-12T21:13:54.654Z,57.70
2022-10-12T21:16:22.640Z,57.68
2022-10-12T21:18:54.571Z,58.06
2022-10-12T21:21:23.263Z,58.06
2022-10-12T21:23:57.837Z,58.18
2022-10-12T21:26:28.870Z,58.16
2022-10-12T21:28:57.695Z,58.39
2022-10-12T21:31:30.976Z,58.28
2022-10-12T21:34:05.406Z,58.35
2022-10-12T21:36:36.365Z,58.24
2022-10-12T21:39:15.855Z,58.27
2022-10-12T21:41:44.143Z,58.47
2022-10-12T21:44:12.406Z,58.56
2022-10-12T21:46:40.842Z,58.41
2022-10-12T21:49:13.971Z,58.59
2022-10-12T21:51:41.822Z,58.48
2022-10-12T21:54:09.748Z,58.54
2022-10-12T21:56:38.145Z,58.56
2022-10-12T21:59:06.621Z,58.58
2022-10-12T22:01:39.330Z,58.76
2022-10-12T22:04:12.925Z,58.76
2022-10-12T22:06:41.225Z,58.81
2022-10-12T22:09:16.966Z,58.84
2022-10-12T22:11:44.992Z,58.89
2022-10-12T22:14:17.205Z,59.04
2022-10-12T22:16:46.242Z,59.11
2022-10-12T22:19:20.255Z,59.23
2022-10-12T22:21:51.172Z,59.15
2022-10-12T22:24:21.367Z,58.94
2022-10-12T22:26:49.361Z,58.99
2022-10-12T22:29:17.238Z,58.85
2022-10-12T22:31:46.377Z,59.15
2022-10-12T22:34:16.093Z,58.69
2022-10-12T22:36:44.638Z,58.74
2022-10-12T22:39:13.592Z,58.50
2022-10-12T22:41:44.946Z,58.54
2022-10-12T22:44:12.840Z,58.74
2022-10-12T22:46:40.684Z,58.68
2022-10-12T22:49:08.563Z,58.68
2022-10-12T22:51:39.378Z,58.86
2022-10-12T22:54:07.786Z,58.96
2022-10-12T22:56:35.648Z,58.89
2022-10-12T22:59:07.125Z,58.69
2022-10-12T23:01:36.239Z,59.18
2022-10-12T23:04:04.681Z,59.25
2022-10-12T23:06:32.586Z,59.29
2022-10-12T23:09:00.562Z,59.34
2022-10-12T23:11:29.693Z,59.53
2022-10-12T23:13:58.505Z,59.27
2022-10-12T23:16:31.847Z,59.33
2022-10-12T23:19:06.078Z,59.48
2022-10-12T23:21:34.941Z,59.67
2022-10-12T23:24:05.065Z,59.38
2022-10-12T23:26:33.946Z,59.68
2022-10-12T23:29:01.906Z,59.77
2022-10-12T23:31:30.695Z,59.32
2022-10-12T23:34:01.215Z,59.37
2022-10-12T23:36:29.595Z,59.34
2022-10-12T23:39:01.238Z,59.30
2022-10-12T23:41:29.275Z,59.26
2022-10-12T23:43:57.220Z,59.50
2022-10-12T23:46:25.050Z,59.46
2022-10-12T23:48:54.743Z,59.74
2022-10-12T23:51:22.681Z,59.61
2022-10-12T23:53:50.576Z,59.84
2022-10-12T23:56:18.390Z,60.08
2022-10-12T23:58:46.231Z,60.10
